createdAt,value
2018-12-22T00:00:01.469Z,8.10
2018-12-22T00:02:32.583Z,8.14
2018-12-22T00:05:01.422Z,8.24
2018-12-22T00:07:30.291Z,8.33
2018-12-22T00:09:59.111Z,8.43
2018-12-22T00:12:27.985Z,8.42
2018-12-22T00:14:57.146Z,8.41
2018-12-22T00:17:26.190Z,8.49
2018-12-22T00:19:54.993Z,8.49
2018-12-22T00:22:23.820Z,8.50
2018-12-22T00:24:52.814Z,8.46
2018-12-22T00:27:21.634Z,8.53
2018-12-22T00:29:50.446Z,8.42
2018-12-22T00:32:19.383Z,8.70
2018-12-22T00:34:51.794Z,8.84
2018-12-22T00:37:20.694Z,8.85
2018-12-22T00:39:49.511Z,8.91
2018-12-22T00:42:18.491Z,8.92
2018-12-22T00:44:47.311Z,9.13
2018-12-22T00:47:16.125Z,9.35
2018-12-22T00:49:44.939Z,9.33
2018-12-22T00:52:13.795Z,9.38
2018-12-22T00:54:42.627Z,9.29
2018-12-22T00:57:11.444Z,9.50
2018-12-22T00:59:40.263Z,9.51
2018-12-22T01:02:09.092Z,9.49
2018-12-22T01:04:37.910Z,9.70
2018-12-22T01:07:06.750Z,9.55
2018-12-22T01:09:35.569Z,9.73
2018-12-22T01:12:04.556Z,9.73
2018-12-22T01:14:33.392Z,9.78
2018-12-22T01:17:02.225Z,9.77
2018-12-22T01:19:31.042Z,9.76
2018-12-22T01:21:59.954Z,9.81
2018-12-22T01:24:28.806Z,9.77
2018-12-22T01:26:57.634Z,9.89
2018-12-22T01:29:26.489Z,10.04
2018-12-22T01:31:55.410Z,10.06
2018-12-22T01:34:24.297Z,9.92
2018-12-22T01:36:53.194Z,9.88
2018-12-22T01:39:22.074Z,9.89
2018-12-22T01:41:51.066Z,9.84
2018-12-22T01:44:20.006Z,9.75
2018-12-22T01:46:49.163Z,9.77
2018-12-22T01:49:18.051Z,9.85
2018-12-22T01:51:46.946Z,9.76
2018-12-22T01:54:15.821Z,9.54
2018-12-22T01:56:44.727Z,9.43
2018-12-22T01:59:13.553Z,9.58
2018-12-22T02:01:42.403Z,9.61
2018-12-22T02:04:11.263Z,9.79
2018-12-22T02:06:40.290Z,9.73
2018-12-22T02:09:09.158Z,9.74
2018-12-22T02:11:37.987Z,9.77
2018-12-22T02:14:06.920Z,9.73
2018-12-22T02:16:35.975Z,9.74
2018-12-22T02:19:04.875Z,9.75
2018-12-22T02:21:33.731Z,9.75
2018-12-22T02:24:02.555Z,9.86
2018-12-22T02:26:31.391Z,9.86
2018-12-22T02:29:00.227Z,9.98
2018-12-22T02:31:29.059Z,10.06
2018-12-22T02:33:57.978Z,10.11
2018-12-22T02:36:26.962Z,10.04
2018-12-22T02:38:55.858Z,10.06
2018-12-22T02:41:24.682Z,10.15
2018-12-22T02:43:53.521Z,10.08
2018-12-22T02:46:22.406Z,10.06
2018-12-22T02:48:51.237Z,10.06
2018-12-22T02:51:20.474Z,10.16
2018-12-22T02:53:49.283Z,10.20
2018-12-22T02:56:18.287Z,10.16
2018-12-22T02:58:47.195Z,10.27
2018-12-22T03:01:16.048Z,10.20
2018-12-22T03:03:44.922Z,10.18
2018-12-22T03:06:13.762Z,10.23
2018-12-22T03:08:42.606Z,10.25
2018-12-22T03:11:12.546Z,10.24
2018-12-22T03:13:41.760Z,10.29
2018-12-22T03:16:10.664Z,10.43
2018-12-22T03:18:39.532Z,10.40
2018-12-22T03:21:08.374Z,10.39
2018-12-22T03:23:37.211Z,10.44
2018-12-22T03:26:06.106Z,10.39
2018-12-22T03:28:34.955Z,10.37
2018-12-22T03:31:03.776Z,10.42
2018-12-22T03:33:36.293Z,10.42
2018-12-22T03:36:05.351Z,10.31
2018-12-22T03:38:34.243Z,10.25
2018-12-22T03:41:03.151Z,10.17
2018-12-22T03:43:32.024Z,10.15
2018-12-22T03:46:00.858Z,10.13
2018-12-22T03:48:30.075Z,10.12
2018-12-22T03:50:59.049Z,10.01
2018-12-22T03:53:28.556Z,9.90
2018-12-22T03:55:57.463Z,9.71
2018-12-22T03:58:26.487Z,9.56
2018-12-22T04:00:55.374Z,9.57
2018-12-22T04:03:24.281Z,9.49
2018-12-22T04:05:54.192Z,9.44
2018-12-22T04:08:23.006Z,9.39
2018-12-22T04:10:51.837Z,9.30
2018-12-22T04:13:20.663Z,9.29
2018-12-22T04:15:49.507Z,9.31
2018-12-22T04:18:18.347Z,9.29
2018-12-22T04:20:47.179Z,9.26
2018-12-22T04:23:15.994Z,9.26
2018-12-22T04:25:45.154Z,9.19
2018-12-22T04:28:14.005Z,9.24
2018-12-22T04:30:42.842Z,9.19
2018-12-22T04:33:11.702Z,9.16
2018-12-22T04:35:41.614Z,9.10
2018-12-22T04:38:10.487Z,9.17
2018-12-22T04:40:39.326Z,8.99
2018-12-22T04:43:08.143Z,8.99
2018-12-22T04:45:37.001Z,9.08
2018-12-22T04:48:05.860Z,9.00
2018-12-22T04:50:34.787Z,8.98
2018-12-22T04:53:03.609Z,9.00
2018-12-22T04:55:32.439Z,9.01
2018-12-22T04:58:01.291Z,9.05
2018-12-22T05:00:30.191Z,9.03
2018-12-22T05:02:59.025Z,9.05
2018-12-22T05:05:27.955Z,9.12
2018-12-22T05:07:56.829Z,9.35
2018-12-22T05:10:25.651Z,9.32
2018-12-22T05:12:54.523Z,9.33
2018-12-22T05:15:23.330Z,9.47
2018-12-22T05:17:52.154Z,9.47
2018-12-22T05:20:20.970Z,9.43
2018-12-22T05:22:49.893Z,9.34
2018-12-22T05:25:18.788Z,9.21
2018-12-22T05:27:47.620Z,9.21
2018-12-22T05:30:16.471Z,9.22
2018-12-22T05:32:45.315Z,9.28
2018-12-22T05:35:14.130Z,9.29
2018-12-22T05:37:43.119Z,9.39
2018-12-22T05:40:11.946Z,9.32
2018-12-22T05:42:40.794Z,9.24
2018-12-22T05:45:09.634Z,9.18
2018-12-22T05:47:38.513Z,9.12
2018-12-22T05:50:07.695Z,9.09
2018-12-22T05:52:36.523Z,9.09
2018-12-22T05:55:06.169Z,9.06
2018-12-22T05:57:35.077Z,9.03
2018-12-22T06:00:04.799Z,8.97
2018-12-22T06:02:33.946Z,8.96
2018-12-22T06:05:02.776Z,8.96
2018-12-22T06:07:31.671Z,9.00
2018-12-22T06:10:00.564Z,8.94
2018-12-22T06:12:29.538Z,8.90
2018-12-22T06:14:58.498Z,8.90
2018-12-22T06:17:27.642Z,8.95
2018-12-22T06:19:56.823Z,8.88
2018-12-22T06:22:25.814Z,8.87
2018-12-22T06:24:54.720Z,8.84
2018-12-22T06:27:23.619Z,8.89
2018-12-22T06:29:52.508Z,8.83
2018-12-22T06:32:21.656Z,8.72
2018-12-22T06:34:50.495Z,8.73
2018-12-22T06:37:19.460Z,8.69
2018-12-22T06:39:48.371Z,8.68
2018-12-22T06:42:17.206Z,8.65
2018-12-22T06:44:46.029Z,8.66
2018-12-22T06:47:14.883Z,8.63
2018-12-22T06:49:43.748Z,8.50
2018-12-22T06:52:12.597Z,8.41
2018-12-22T06:54:41.469Z,8.30
2018-12-22T06:57:10.387Z,8.26
2018-12-22T06:59:39.239Z,8.23
2018-12-22T07:02:08.237Z,8.22
2018-12-22T07:04:37.131Z,8.19
2018-12-22T07:07:06.011Z,8.01
2018-12-22T07:09:34.831Z,7.94
2018-12-22T07:12:03.666Z,7.93
2018-12-22T07:14:32.614Z,7.98
2018-12-22T07:17:01.466Z,7.93
2018-12-22T07:19:30.991Z,7.92
2018-12-22T07:21:59.812Z,7.85
2018-12-22T07:24:28.702Z,7.87
2018-12-22T07:26:57.525Z,7.93
2018-12-22T07:29:26.376Z,7.95
2018-12-22T07:31:55.241Z,7.93
2018-12-22T07:34:24.151Z,7.93
2018-12-22T07:36:52.981Z,7.96
2018-12-22T07:39:22.185Z,7.97
2018-12-22T07:41:51.027Z,8.01
2018-12-22T07:44:19.860Z,8.12
2018-12-22T07:46:48.715Z,8.12
2018-12-22T07:49:17.594Z,8.09
2018-12-22T07:51:46.455Z,8.07
2018-12-22T07:54:15.418Z,8.06
2018-12-22T07:56:44.368Z,8.01
2018-12-22T07:59:13.234Z,8.03
2018-12-22T08:01:42.166Z,8.01
2018-12-22T08:04:11.039Z,8.02
2018-12-22T08:06:40.176Z,8.06
2018-12-22T08:09:09.118Z,8.03
2018-12-22T08:11:38.024Z,8.06
2018-12-22T08:14:06.846Z,8.06
2018-12-22T08:16:35.742Z,8.05
2018-12-22T08:19:04.698Z,8.05
2018-12-22T08:21:33.548Z,8.05
2018-12-22T08:24:02.378Z,8.00
2018-12-22T08:26:31.269Z,8.05
2018-12-22T08:29:00.140Z,8.03
2018-12-22T08:31:29.000Z,8.05
2018-12-22T08:33:57.862Z,8.03
2018-12-22T08:36:26.846Z,8.01
2018-12-22T08:38:55.700Z,8.04
2018-12-22T08:41:24.534Z,8.00
2018-12-22T08:43:53.379Z,7.97
2018-12-22T08:46:22.229Z,7.94
2018-12-22T08:48:51.067Z,7.96
2018-12-22T08:51:19.899Z,7.93
2018-12-22T08:53:48.767Z,7.94
2018-12-22T08:56:17.739Z,7.96
2018-12-22T08:58:46.639Z,8.14
2018-12-22T09:01:15.487Z,8.17
2018-12-22T09:03:44.320Z,8.25
2018-12-22T09:06:13.206Z,8.37
2018-12-22T09:08:42.121Z,8.45
2018-12-22T09:11:11.164Z,8.41
2018-12-22T09:13:40.014Z,8.42
2018-12-22T09:16:08.892Z,8.34
2018-12-22T09:18:37.715Z,8.28
2018-12-22T09:21:06.602Z,8.33
2018-12-22T09:23:35.489Z,8.29
2018-12-22T09:26:04.343Z,8.27
2018-12-22T09:28:33.319Z,8.29
2018-12-22T09:31:02.186Z,8.29
2018-12-22T09:33:32.685Z,8.33
2018-12-22T09:36:01.547Z,8.28
2018-12-22T09:38:30.407Z,8.27
2018-12-22T09:40:59.300Z,8.24
2018-12-22T09:43:28.411Z,8.28
2018-12-22T09:45:57.243Z,8.33
2018-12-22T09:48:26.072Z,8.42
2018-12-22T09:50:55.070Z,8.49
2018-12-22T09:53:23.929Z,8.56
2018-12-22T09:55:52.735Z,8.73
2018-12-22T09:58:21.639Z,8.77
2018-12-22T10:00:51.347Z,8.82
2018-12-22T10:03:20.222Z,8.88
2018-12-22T10:05:49.110Z,8.93
2018-12-22T10:08:17.998Z,8.95
2018-12-22T10:10:46.858Z,9.04
2018-12-22T10:13:15.712Z,9.14
2018-12-22T10:15:44.583Z,9.33
2018-12-22T10:18:13.602Z,9.36
2018-12-22T10:20:42.522Z,9.41
2018-12-22T10:23:11.473Z,9.55
2018-12-22T10:25:40.348Z,9.64
2018-12-22T10:28:09.363Z,9.75
2018-12-22T10:30:38.247Z,9.74
2018-12-22T10:33:10.106Z,9.76
2018-12-22T10:35:39.107Z,9.68
2018-12-22T10:38:08.075Z,9.63
2018-12-22T10:40:36.983Z,9.66
2018-12-22T10:43:05.862Z,9.70
2018-12-22T10:45:34.707Z,9.66
2018-12-22T10:48:03.611Z,9.75
2018-12-22T10:50:32.539Z,9.90
2018-12-22T10:53:02.367Z,9.94
2018-12-22T10:55:31.246Z,9.93
2018-12-22T10:58:00.130Z,10.08
2018-12-22T11:00:29.012Z,10.20
2018-12-22T11:02:57.922Z,10.20
2018-12-22T11:05:26.734Z,10.29
2018-12-22T11:07:55.681Z,10.28
2018-12-22T11:10:26.170Z,10.27
2018-12-22T11:12:57.675Z,10.22
2018-12-22T11:15:26.525Z,10.45
2018-12-22T11:17:55.364Z,10.63
2018-12-22T11:20:24.453Z,10.68
2018-12-22T11:22:53.337Z,10.62
2018-12-22T11:25:24.989Z,10.48
2018-12-22T11:27:54.942Z,10.62
2018-12-22T11:30:27.169Z,10.72
2018-12-22T11:32:56.103Z,10.84
2018-12-22T11:35:24.990Z,10.70
2018-12-22T11:37:53.915Z,10.67
2018-12-22T11:40:22.772Z,10.64
2018-12-22T11:42:51.832Z,10.55
2018-12-22T11:45:20.758Z,10.50
2018-12-22T11:48:00.875Z,10.41
2018-12-22T11:50:29.783Z,10.26
2018-12-22T11:52:58.690Z,10.15
2018-12-22T11:55:27.538Z,10.12
2018-12-22T11:57:56.430Z,10.14
2018-12-22T12:00:25.318Z,10.08
2018-12-22T12:02:54.242Z,10.17
2018-12-22T12:05:23.180Z,10.24
2018-12-22T12:07:52.090Z,10.32
2018-12-22T12:10:20.946Z,10.26
2018-12-22T12:12:49.793Z,10.31
2018-12-22T12:15:21.763Z,10.30
2018-12-22T12:18:06.097Z,10.28
2018-12-22T12:20:34.964Z,10.18
2018-12-22T12:23:03.870Z,10.16
2018-12-22T12:25:32.762Z,10.04
2018-12-22T12:28:01.616Z,10.00
2018-12-22T12:30:30.501Z,10.01
2018-12-22T12:32:59.343Z,9.95
2018-12-22T12:35:28.227Z,9.83
2018-12-22T12:37:57.075Z,9.80
2018-12-22T12:40:26.003Z,9.82
2018-12-22T12:42:54.875Z,9.79
2018-12-22T12:45:23.699Z,9.80
2018-12-22T12:47:52.535Z,9.68
2018-12-22T12:50:22.510Z,9.49
2018-12-22T12:52:51.375Z,9.33
2018-12-22T12:55:20.247Z,9.23
2018-12-22T12:57:49.081Z,9.27
2018-12-22T13:00:18.574Z,9.28
2018-12-22T13:02:47.571Z,9.29
2018-12-22T13:05:16.430Z,9.41
2018-12-22T13:07:45.295Z,9.42
2018-12-22T13:10:14.127Z,9.55
2018-12-22T13:12:53.471Z,9.63
2018-12-22T13:15:23.616Z,9.68
2018-12-22T13:17:52.542Z,9.76
2018-12-22T13:20:21.414Z,9.82
2018-12-22T13:22:50.255Z,9.81
2018-12-22T13:25:19.179Z,9.82
2018-12-22T13:27:48.047Z,9.80
2018-12-22T13:30:16.940Z,9.75
2018-12-22T13:32:45.843Z,9.74
2018-12-22T13:35:14.815Z,9.78
2018-12-22T13:37:43.862Z,9.84
2018-12-22T13:40:12.975Z,9.80
2018-12-22T13:42:41.905Z,9.77
2018-12-22T13:45:10.944Z,9.71
2018-12-22T13:47:40.082Z,9.75
2018-12-22T13:50:09.109Z,9.72
2018-12-22T13:52:38.029Z,9.75
2018-12-22T13:55:07.795Z,9.77
2018-12-22T13:57:36.972Z,9.78
2018-12-22T14:00:09.967Z,9.79
2018-12-22T14:02:39.991Z,9.76
2018-12-22T14:05:11.447Z,9.73
2018-12-22T14:07:40.321Z,9.75
2018-12-22T14:10:10.472Z,9.71
2018-12-22T14:12:39.392Z,9.67
2018-12-22T14:15:12.027Z,9.69
2018-12-22T14:18:01.708Z,9.66
2018-12-22T14:20:32.003Z,9.65
2018-12-22T14:23:00.868Z,9.60
2018-12-22T14:25:30.914Z,9.65
2018-12-22T14:27:59.779Z,9.59
2018-12-22T14:30:28.622Z,9.52
2018-12-22T14:32:59.434Z,9.44
2018-12-22T14:35:39.978Z,9.40
2018-12-22T14:38:08.849Z,9.39
2018-12-22T14:40:38.766Z,9.42
2018-12-22T14:43:07.635Z,9.39
2018-12-22T14:45:36.514Z,9.34
2018-12-22T14:48:05.466Z,9.28
2018-12-22T14:50:34.342Z,9.15
2018-12-22T14:53:03.277Z,9.03
2018-12-22T14:55:33.106Z,8.85
2018-12-22T14:58:36.150Z,8.68
2018-12-22T15:01:05.119Z,8.55
2018-12-22T15:03:34.237Z,8.50
2018-12-22T15:06:03.189Z,8.44
2018-12-22T15:08:32.127Z,8.40
2018-12-22T15:11:01.033Z,8.37
2018-12-22T15:13:29.889Z,8.33
2018-12-22T15:15:58.736Z,8.25
2018-12-22T15:18:27.607Z,8.25
2018-12-22T15:20:57.739Z,8.23
2018-12-22T15:23:26.592Z,8.18
2018-12-22T15:25:55.487Z,8.14
2018-12-22T15:28:24.536Z,8.11
2018-12-22T15:30:53.355Z,8.08
2018-12-22T15:33:22.962Z,8.06
2018-12-22T15:35:51.832Z,8.09
2018-12-22T15:38:20.666Z,8.04
2018-12-22T15:40:49.621Z,8.00
2018-12-22T15:43:19.660Z,8.01
2018-12-22T15:45:48.618Z,7.96
2018-12-22T15:48:17.491Z,7.98
2018-12-22T15:50:47.772Z,7.94
2018-12-22T15:53:16.773Z,7.94
2018-12-22T15:55:45.627Z,7.87
2018-12-22T15:58:14.579Z,7.94
2018-12-22T16:00:43.440Z,7.84
2018-12-22T16:03:12.327Z,7.85
2018-12-22T16:05:41.243Z,7.89
2018-12-22T16:08:10.167Z,7.83
2018-12-22T16:10:39.201Z,7.79
2018-12-22T16:13:08.067Z,7.76
2018-12-22T16:15:36.918Z,7.73
2018-12-22T16:18:05.867Z,7.66
2018-12-22T16:20:34.793Z,7.70
2018-12-22T16:23:04.571Z,7.70
2018-12-22T16:25:33.576Z,7.76
2018-12-22T16:28:09.728Z,7.85
2018-12-22T16:30:43.056Z,7.82
2018-12-22T16:33:12.140Z,7.80
2018-12-22T16:35:40.996Z,7.70
2018-12-22T16:38:09.948Z,7.69
2018-12-22T16:40:38.912Z,7.60
2018-12-22T16:43:10.946Z,7.59
2018-12-22T16:45:43.140Z,7.59
2018-12-22T16:48:12.056Z,7.63
2018-12-22T16:50:42.535Z,7.59
2018-12-22T16:53:11.549Z,7.53
2018-12-22T16:55:40.622Z,7.59
2018-12-22T16:58:44.811Z,7.46
2018-12-22T17:01:37.459Z,7.47
2018-12-22T17:04:06.407Z,7.56
2018-12-22T17:06:35.979Z,7.52
2018-12-22T17:09:06.933Z,7.49
2018-12-22T17:11:35.813Z,7.58
2018-12-22T17:14:04.831Z,7.59
2018-12-22T17:16:33.714Z,7.59
2018-12-22T17:19:02.699Z,7.60
2018-12-22T17:21:49.823Z,7.66
2018-12-22T17:24:31.202Z,7.71
2018-12-22T17:27:00.052Z,7.76
2018-12-22T17:29:28.983Z,7.74
2018-12-22T17:31:57.935Z,7.84
2018-12-22T17:34:26.895Z,7.83
2018-12-22T17:36:55.839Z,7.87
2018-12-22T17:39:24.735Z,7.88
2018-12-22T17:41:53.721Z,7.88
2018-12-22T17:44:22.542Z,7.84
2018-12-22T17:46:51.421Z,7.76
2018-12-22T17:49:20.507Z,7.72
2018-12-22T17:51:49.362Z,7.70
2018-12-22T17:54:19.096Z,7.59
2018-12-22T17:56:48.103Z,7.54
2018-12-22T17:59:17.035Z,7.58
2018-12-22T18:01:45.990Z,7.47
2018-12-22T18:04:14.882Z,7.47
2018-12-22T18:06:43.759Z,7.46
2018-12-22T18:09:12.650Z,7.44
2018-12-22T18:11:41.502Z,7.46
2018-12-22T18:14:10.406Z,7.48
2018-12-22T18:16:39.316Z,7.51
2018-12-22T18:19:08.342Z,7.47
2018-12-22T18:21:37.840Z,7.43
2018-12-22T18:24:06.802Z,7.48
2018-12-22T18:26:35.718Z,7.34
2018-12-22T18:29:04.554Z,7.33
2018-12-22T18:31:33.470Z,7.29
2018-12-22T18:34:02.383Z,7.24
2018-12-22T18:36:31.359Z,7.25
2018-12-22T18:39:00.255Z,7.21
2018-12-22T18:41:29.247Z,7.21
2018-12-22T18:43:58.147Z,7.23
2018-12-22T18:46:27.011Z,7.14
2018-12-22T18:48:55.887Z,7.23
2018-12-22T18:51:24.863Z,7.33
2018-12-22T18:53:53.768Z,7.36
2018-12-22T18:56:22.811Z,7.38
2018-12-22T18:58:52.191Z,7.42
2018-12-22T19:01:21.153Z,7.46
2018-12-22T19:03:50.095Z,7.40
2018-12-22T19:06:18.916Z,7.40
2018-12-22T19:08:48.767Z,7.39
2018-12-22T19:11:19.927Z,7.39
2018-12-22T19:13:48.854Z,7.34
2018-12-22T19:16:17.811Z,7.31
2018-12-22T19:18:46.714Z,7.35
2018-12-22T19:21:15.551Z,7.27
2018-12-22T19:23:44.706Z,7.30
2018-12-22T19:26:13.555Z,7.33
2018-12-22T19:28:42.444Z,7.49
2018-12-22T19:31:12.370Z,7.55
2018-12-22T19:33:41.458Z,7.56
2018-12-22T19:36:10.326Z,7.56
2018-12-22T19:38:39.166Z,7.61
2018-12-22T19:42:11.322Z,7.65
2018-12-22T19:44:40.324Z,7.61
2018-12-22T19:47:09.157Z,7.64
2018-12-22T19:49:38.001Z,7.70
2018-12-22T19:52:06.991Z,7.67
2018-12-22T19:54:35.883Z,7.59
2018-12-22T19:57:04.803Z,7.60
2018-12-22T19:59:33.656Z,7.69
2018-12-22T20:02:02.571Z,7.64
2018-12-22T20:04:31.443Z,7.73
2018-12-22T20:07:00.275Z,7.65
2018-12-22T20:09:29.122Z,7.63
2018-12-22T20:11:57.954Z,7.61
2018-12-22T20:14:26.790Z,7.66
2018-12-22T20:16:55.676Z,7.59
2018-12-22T20:19:24.608Z,7.54
2018-12-22T20:21:53.432Z,7.53
2018-12-22T20:24:28.553Z,7.49
2018-12-22T20:26:57.572Z,7.51
2018-12-22T20:29:26.393Z,7.42
2018-12-22T20:31:55.283Z,7.42
2018-12-22T20:34:24.182Z,7.41
2018-12-22T20:36:53.007Z,7.49
2018-12-22T20:39:21.961Z,7.45
2018-12-22T20:41:51.105Z,7.43
2018-12-22T20:44:19.964Z,7.51
2018-12-22T20:46:48.826Z,7.49
2018-12-22T20:49:17.764Z,7.46
2018-12-22T20:51:46.623Z,7.50
2018-12-22T20:54:15.603Z,7.54
2018-12-22T20:56:44.474Z,7.57
2018-12-22T20:59:13.368Z,7.67
2018-12-22T21:01:42.466Z,7.62
2018-12-22T21:04:19.658Z,7.67
2018-12-22T21:06:42.265Z,7.69
2018-12-22T21:09:11.101Z,7.70
2018-12-22T21:11:40.184Z,7.75
2018-12-22T21:14:09.337Z,7.83
2018-12-22T21:16:38.482Z,7.78
2018-12-22T21:19:07.354Z,7.78
2018-12-22T21:21:36.206Z,7.81
2018-12-22T21:24:05.168Z,7.79
2018-12-22T21:26:34.014Z,7.80
2018-12-22T21:29:02.854Z,7.78
2018-12-22T21:31:31.706Z,7.70
2018-12-22T21:34:00.616Z,7.70
2018-12-22T21:36:29.502Z,7.73
2018-12-22T21:38:58.518Z,7.66
2018-12-22T21:41:27.583Z,7.70
2018-12-22T21:43:56.493Z,7.72
2018-12-22T21:46:25.367Z,7.70
2018-12-22T21:48:54.253Z,7.74
2018-12-22T21:51:23.095Z,7.74
2018-12-22T21:53:52.029Z,7.74
2018-12-22T21:56:20.951Z,7.70
2018-12-22T21:58:49.831Z,7.70
2018-12-22T22:01:18.673Z,7.72
2018-12-22T22:03:47.543Z,7.68
2018-12-22T22:06:16.419Z,7.72
2018-12-22T22:08:45.283Z,7.72
2018-12-22T22:11:14.259Z,7.69
2018-12-22T22:13:43.187Z,7.74
2018-12-22T22:16:12.027Z,7.73
2018-12-22T22:18:40.871Z,7.74
2018-12-22T22:21:09.745Z,7.72
2018-12-22T22:23:38.715Z,7.70
2018-12-22T22:26:07.627Z,7.67
2018-12-22T22:28:36.584Z,7.62
2018-12-22T22:31:05.463Z,7.61
2018-12-22T22:33:37.408Z,7.52
2018-12-22T22:36:06.409Z,7.45
2018-12-22T22:38:35.296Z,7.33
2018-12-22T22:41:04.143Z,7.29
2018-12-22T22:43:33.736Z,7.26
2018-12-22T22:46:02.710Z,7.27
2018-12-22T22:48:31.551Z,7.22
2018-12-22T22:51:00.414Z,7.22
2018-12-22T22:53:29.231Z,7.24
2018-12-22T22:55:58.090Z,7.26
2018-12-22T22:58:27.006Z,7.18
2018-12-22T23:00:55.935Z,7.20
2018-12-22T23:03:24.870Z,7.15
2018-12-22T23:05:53.772Z,7.21
2018-12-22T23:08:22.646Z,7.18
2018-12-22T23:10:51.693Z,7.18
2018-12-22T23:13:20.597Z,7.16
2018-12-22T23:15:49.431Z,7.17
2018-12-22T23:18:19.343Z,7.16
2018-12-22T23:20:48.159Z,7.15
2018-12-22T23:23:17.012Z,7.12
2018-12-22T23:25:45.907Z,7.17
2018-12-22T23:28:14.815Z,7.12
2018-12-22T23:30:43.646Z,7.20
2018-12-22T23:33:12.830Z,7.15
2018-12-22T23:35:41.678Z,7.20
2018-12-22T23:38:10.582Z,7.16
2018-12-22T23:40:39.512Z,7.17
2018-12-22T23:43:08.396Z,7.18
2018-12-22T23:45:37.241Z,7.17
2018-12-22T23:48:06.103Z,7.21
2018-12-22T23:50:34.931Z,7.16
2018-12-22T23:53:03.811Z,7.22
2018-12-22T23:55:32.667Z,7.27
2018-12-22T23:58:01.579Z,7.24
